Sandvig, Denmark
Current Conditions -  °F | °C
As of 3:20 PM on Monday 26 Jan 2015 (Local Time) from EKRN Reporting Station
Overcast Overcast  
Wind Chill: 26°   Ceiling: 800
Heat Index: 37°   Visibility: 6mi
Dew Point: 34°   Wind: 23mph
Humidity: 87%   Direction: 190°S
Pressure: 29.91"   Gusts: NA
Location:  55.28°N, 14.78°E
Report Text: EKRN 261420Z AUTO 19020KT 9999NDV OVC008/// 03/01 Q1013
Loading
Personal Weather Stations






























Interactive Weather Map New forecast layout! Learn more

10-Day Weather Forecast

Advertisements
Track Severe Weather on mobile